Time;durP1;ratioP1;P1;durP2;ratioP2;P2;SDS_P1;SDS_P2;PMS_P1;PMS_P2;Temp;Humidity;BMP_temperature;BMP_pressure;BME280_temperature;BME280_humidity;BME280_pressure;Samples;Min_cycle;Max_cycle;Signal;HPM_P1;HPM_P2
2023/03/05 00:03:52;;;;;;;0.10;0.10;;;;;;;1.63;nan;101788.06;10168733;29;20055;-88
2023/03/05 00:09:08;;;;;;;2.50;0.77;;;;;;;1.53;nan;101777.09;10157016;29;20416;-87
2023/03/05 00:14:46;;;;;;;0.55;0.55;;;;;;;1.42;nan;101760.81;10166832;29;20424;-87
2023/03/05 00:20:19;;;;;;;4.25;1.30;;;;;;;1.33;nan;101760.19;10164249;29;20496;-87
2023/03/05 00:25:51;;;;;;;2.97;0.47;;;;;;;1.22;nan;101762.03;10168962;29;20110;-88
2023/03/05 00:31:11;;;;;;;0.20;0.20;;;;;;;1.18;nan;101746.22;10152695;29;20051;-87
2023/03/05 00:36:31;;;;;;;0.10;0.10;;;;;;;1.13;nan;101748.47;10163062;29;20154;-87
2023/03/05 00:41:40;;;;;;;0.30;0.30;;;;;;;1.13;nan;101740.75;10182517;29;20048;-87
2023/03/05 00:46:58;;;;;;;0.35;0.35;;;;;;;1.09;nan;101741.31;10164197;29;20086;-87
2023/03/05 00:52:06;;;;;;;0.45;0.45;;;;;;;1.10;nan;101740.53;10198820;29;20682;-87
2023/03/05 00:57:12;;;;;;;0.13;0.13;;;;;;;1.13;nan;101721.81;10186860;29;20118;-87
2023/03/05 01:02:29;;;;;;;0.60;0.35;;;;;;;1.15;nan;101717.63;10177952;29;20058;-87
2023/03/05 01:07:43;;;;;;;;;;;;;;;1.21;nan;101716.34;10172993;29;20500;-87
2023/03/05 01:13:11;;;;;;;0.25;0.25;;;;;;;1.21;nan;101708.63;10184847;29;20018;-88
2023/03/05 01:18:37;;;;;;;0.20;0.20;;;;;;;1.18;nan;101703.25;10156241;29;20059;-87
2023/03/05 01:23:53;;;;;;;0.13;0.13;;;;;;;1.18;nan;101697.22;10184832;29;20055;-87
2023/03/05 01:29:07;;;;;;;0.45;0.30;;;;;;;1.21;nan;101687.09;10171920;29;20062;-87
2023/03/05 01:34:20;;;;;;;0.10;0.10;;;;;;;1.12;nan;101677.03;10205866;29;20051;-87
2023/03/05 01:39:47;;;;;;;0.10;0.10;;;;;;;1.08;nan;101680.19;10205901;29;20047;-87
2023/03/05 01:45:14;;;;;;;0.20;0.20;;;;;;;1.00;nan;101673.59;10190520;29;20055;-87
2023/03/05 01:50:43;;;;;;;0.35;0.35;;;;;;;0.91;nan;101667.81;10187956;29;20082;-88
2023/03/05 01:55:51;;;;;;;0.63;0.57;;;;;;;0.90;nan;101659.16;10201381;29;20527;-88
2023/03/05 02:01:00;;;;;;;0.70;0.63;;;;;;;0.92;nan;101654.13;10169086;29;20088;-87
2023/03/05 02:06:18;;;;;;;0.52;0.52;;;;;;;0.91;nan;101650.63;10183499;29;20058;-87
2023/03/05 02:11:31;;;;;;;0.10;0.10;;;;;;;0.88;nan;101638.41;10183787;29;20047;-87
2023/03/05 02:16:40;;;;;;;0.53;0.53;;;;;;;0.80;nan;101638.69;10183048;29;20052;-87
2023/03/05 02:21:47;;;;;;;;;;;;;;;0.77;nan;101625.59;10183315;29;20476;-87
2023/03/05 02:26:59;;;;;;;0.30;0.30;;;;;;;0.70;nan;101621.66;10182280;29;19926;-88
2023/03/05 02:32:03;;;;;;;0.30;0.30;;;;;;;0.63;nan;101616.88;10161145;29;20139;-88
2023/03/05 02:37:09;;;;;;;2.30;0.93;;;;;;;0.56;nan;101606.94;10181470;29;20044;-88
2023/03/05 02:42:12;;;;;;;0.35;0.35;;;;;;;0.60;nan;101602.09;10182244;29;20052;-88
2023/03/05 02:47:18;;;;;;;0.32;0.32;;;;;;;0.63;nan;101598.81;10182559;29;20151;-87
2023/03/05 02:52:24;;;;;;;0.22;0.22;;;;;;;0.63;nan;101593.66;10166241;29;20055;-88
2023/03/05 02:57:34;;;;;;;0.10;0.10;;;;;;;0.65;nan;101597.25;10167185;29;20134;-87
2023/03/05 03:02:39;;;;;;;0.40;0.40;;;;;;;0.69;nan;101579.53;10174834;29;20051;-88
2023/03/05 03:07:44;;;;;;;0.03;0.03;;;;;;;0.71;nan;101574.50;10180622;29;20051;-87
2023/03/05 03:12:46;;;;;;;0.63;0.63;;;;;;;0.72;nan;101568.53;10182611;29;20086;-87
2023/03/05 03:17:48;;;;;;;0.25;0.25;;;;;;;0.78;nan;101568.06;10181359;29;20127;-87
2023/03/05 03:22:50;;;;;;;0.30;0.30;;;;;;;0.82;nan;101568.38;10198900;29;20048;-87
2023/03/05 03:27:54;;;;;;;0.20;0.20;;;;;;;0.87;nan;101558.38;10178790;29;20134;-88
2023/03/05 03:33:06;;;;;;;0.32;0.32;;;;;;;0.91;nan;101559.50;10165391;29;20056;-87
2023/03/05 03:38:12;;;;;;;0.20;0.20;;;;;;;0.93;nan;101542.44;10182535;29;20052;-86
2023/03/05 03:43:14;;;;;;;0.10;0.10;;;;;;;0.94;nan;101536.50;10169558;29;20051;-88
2023/03/05 03:48:16;;;;;;;0.63;0.50;;;;;;;0.87;nan;101525.78;10178924;29;20043;-87
2023/03/05 03:53:24;;;;;;;0.88;0.60;;;;;;;0.86;nan;101521.38;10175655;29;20419;-87
2023/03/05 03:58:26;;;;;;;0.52;0.40;;;;;;;0.79;nan;101521.75;10161898;29;20741;-87
2023/03/05 04:03:30;;;;;;;0.75;0.70;;;;;;;0.76;nan;101507.78;10188986;29;20055;-87
2023/03/05 04:08:32;;;;;;;0.32;0.25;;;;;;;0.73;nan;101513.59;10192700;29;20055;-87
2023/03/05 04:13:36;;;;;;;0.20;0.20;;;;;;;0.74;nan;101499.94;10188007;29;20793;-87
2023/03/05 04:18:39;;;;;;;0.20;0.20;;;;;;;0.75;nan;101493.09;10169781;29;20044;-88
2023/03/05 04:23:43;;;;;;;0.10;0.10;;;;;;;0.70;nan;101485.94;10172196;29;20055;-87
2023/03/05 04:28:51;;;;;;;1.55;0.40;;;;;;;0.62;nan;101489.69;10170941;29;20055;-88
2023/03/05 04:33:58;;;;;;;0.45;0.45;;;;;;;0.57;nan;101479.84;10186130;29;20059;-87
2023/03/05 04:39:01;;;;;;;0.10;0.10;;;;;;;0.55;nan;101476.28;10177617;29;20400;-89
2023/03/05 04:44:03;;;;;;;0.20;0.20;;;;;;;0.52;nan;101476.94;10188522;29;20480;-88
2023/03/05 04:49:05;;;;;;;0.55;0.50;;;;;;;0.51;nan;101465.75;10204222;29;20095;-86
2023/03/05 04:54:07;;;;;;;0.10;0.10;;;;;;;0.52;nan;101467.53;10204459;29;20051;-87
2023/03/05 04:59:09;;;;;;;0.10;0.10;;;;;;;0.59;nan;101462.81;10186354;29;20060;-87
2023/03/05 05:04:10;;;;;;;0.00;0.00;;;;;;;0.62;nan;101460.44;10204271;29;20104;-87
2023/03/05 05:09:12;;;;;;;1.13;0.82;;;;;;;0.64;nan;101466.59;10203034;29;20096;-88
2023/03/05 05:14:14;;;;;;;0.20;0.20;;;;;;;0.65;nan;101461.53;10186382;29;20051;-86
2023/03/05 05:19:16;;;;;;;0.13;0.13;;;;;;;0.68;nan;101466.00;10203036;29;20047;-86
2023/03/05 05:24:18;;;;;;;0.17;0.17;;;;;;;0.70;nan;101459.25;10195835;29;20052;-86
2023/03/05 05:29:19;;;;;;;0.10;0.10;;;;;;;0.68;nan;101459.16;10202543;29;20058;-87
2023/03/05 05:34:23;;;;;;;0.15;0.15;;;;;;;0.65;nan;101464.09;10198374;29;20067;-86
2023/03/05 05:39:25;;;;;;;0.10;0.10;;;;;;;0.64;nan;101462.31;10184838;29;20062;-87
2023/03/05 05:44:27;;;;;;;0.10;0.10;;;;;;;0.61;nan;101456.06;10185379;29;20051;-87
2023/03/05 05:49:29;;;;;;;0.20;0.20;;;;;;;0.57;nan;101449.81;10169800;29;20572;-86
2023/03/05 05:54:31;;;;;;;0.30;0.30;;;;;;;0.52;nan;101446.91;10194642;29;20579;-87
2023/03/05 05:59:32;;;;;;;0.10;0.10;;;;;;;0.44;nan;101432.63;10184313;29;20071;-87
2023/03/05 06:04:34;;;;;;;0.10;0.10;;;;;;;0.40;nan;101435.75;10185581;29;20051;-88
2023/03/05 06:09:36;;;;;;;0.10;0.10;;;;;;;0.38;nan;101437.34;10184831;29;20051;-87
2023/03/05 06:14:38;;;;;;;0.10;0.10;;;;;;;0.31;nan;101433.44;10202515;29;20051;-87
2023/03/05 06:19:40;;;;;;;0.20;0.10;;;;;;;0.28;nan;101440.09;10184690;29;20075;-87
2023/03/05 06:24:42;;;;;;;0.10;0.10;;;;;;;0.26;nan;101444.25;10175632;29;20094;-86
2023/03/05 06:29:43;;;;;;;0.10;0.10;;;;;;;0.19;nan;101435.19;10201424;29;20052;-86
2023/03/05 06:34:45;;;;;;;0.10;0.10;;;;;;;0.19;nan;101450.63;10179215;29;20051;-86
2023/03/05 06:39:47;;;;;;;0.10;0.10;;;;;;;0.22;nan;101450.84;10167462;29;20062;-86
2023/03/05 06:44:48;;;;;;;0.20;0.10;;;;;;;0.25;nan;101455.31;10175490;29;20577;-87
2023/03/05 06:49:50;;;;;;;0.13;0.13;;;;;;;0.29;nan;101441.88;10191934;29;20087;-87
2023/03/05 06:54:54;;;;;;;0.10;0.10;;;;;;;0.43;nan;101441.13;10183116;29;20056;-86
2023/03/05 06:59:56;;;;;;;0.10;0.10;;;;;;;0.57;nan;101441.19;10191962;29;20052;-86
2023/03/05 07:04:57;;;;;;;0.30;0.22;;;;;;;0.69;nan;101434.25;10195163;29;20062;-86
2023/03/05 07:09:59;;;;;;;1.17;0.73;;;;;;;0.78;nan;101439.16;10183138;29;20066;-86
2023/03/05 07:15:01;;;;;;;0.10;0.10;;;;;;;0.87;nan;101435.50;10198591;29;20059;-87
2023/03/05 07:20:03;;;;;;;0.10;0.10;;;;;;;1.07;nan;101435.94;10197656;29;20055;-86
2023/03/05 07:25:05;;;;;;;0.20;0.20;;;;;;;1.24;nan;101427.59;10198504;29;20130;-86
2023/03/05 07:30:08;;;;;;;0.30;0.30;;;;;;;1.33;nan;101431.59;10199078;29;20504;-86
2023/03/05 07:35:10;;;;;;;0.10;0.10;;;;;;;1.34;nan;101429.09;10180092;29;20560;-87
2023/03/05 07:40:11;;;;;;;0.10;0.10;;;;;;;1.39;nan;101422.53;10173417;29;20051;-84
2023/03/05 07:45:13;;;;;;;0.20;0.20;;;;;;;1.57;nan;101427.97;10173987;29;20078;-85
2023/03/05 07:50:16;;;;;;;1.98;1.38;;;;;;;1.73;nan;101423.81;10180306;29;20059;-85
2023/03/05 07:55:18;;;;;;;2.67;1.35;;;;;;;1.73;nan;101435.03;10197839;29;20044;-86
2023/03/05 08:00:20;;;;;;;0.20;0.20;;;;;;;1.68;nan;101423.53;10189652;28;20314;-88
2023/03/05 08:05:24;;;;;;;0.00;0.00;;;;;;;1.87;nan;101414.34;10194856;29;20070;-90
2023/03/05 08:11:22;;;;;;;0.10;0.10;;;;;;;1.94;nan;101411.34;10188383;29;20056;-89
2023/03/05 08:16:34;;;;;;;0.17;0.13;;;;;;;2.03;nan;101404.16;10172063;29;20060;-87
2023/03/05 08:22:36;;;;;;;1.65;1.02;;;;;;;2.64;nan;101412.13;10167856;29;20059;-89
2023/03/05 08:28:03;;;;;;;0.10;0.10;;;;;;;2.69;nan;101406.31;10221196;23;20081;-87
2023/03/05 08:33:14;;;;;;;0.22;0.20;;;;;;;2.78;nan;101394.84;10203781;28;20051;-88
2023/03/05 08:38:18;;;;;;;0.30;0.30;;;;;;;2.78;nan;101394.84;10181770;28;20297;-88
2023/03/05 08:43:30;;;;;;;0.65;0.52;;;;;;;4.19;nan;101394.81;10188941;29;20063;-88
2023/03/05 08:48:45;;;;;;;1.08;0.80;;;;;;;4.27;nan;101387.44;10176985;29;20035;-87
2023/03/05 08:53:50;;;;;;;0.90;0.25;;;;;;;4.41;nan;101381.25;10188131;29;20052;-86
2023/03/05 08:58:56;;;;;;;0.13;0.13;;;;;;;4.35;nan;101379.22;10186269;29;20080;-87
2023/03/05 09:04:10;;;;;;;1.23;0.32;;;;;;;3.92;nan;101369.22;10191169;29;20093;-90
2023/03/05 09:09:12;;;;;;;5.53;0.82;;;;;;;3.75;nan;101359.63;10177419;29;20048;-89
2023/03/05 09:14:15;;;;;;;1.30;0.40;;;;;;;3.71;nan;101367.25;10190712;29;20055;-89
2023/03/05 09:19:16;;;;;;;1.63;0.30;;;;;;;3.51;nan;101349.72;10161244;29;20107;-87
2023/03/05 09:24:18;;;;;;;0.20;0.20;;;;;;;3.45;nan;101357.16;10201989;29;20060;-85
2023/03/05 09:29:20;;;;;;;0.32;0.32;;;;;;;3.47;nan;101352.97;10183310;29;20044;-86
2023/03/05 09:34:22;;;;;;;0.30;0.30;;;;;;;3.39;nan;101354.22;10200587;29;20272;-86
2023/03/05 09:39:24;;;;;;;0.57;0.55;;;;;;;3.46;nan;101349.47;10164458;29;20106;-86
2023/03/05 09:45:05;;;;;;;0.20;0.20;;;;;;;3.75;nan;101339.78;10203320;29;20055;-89
2023/03/05 09:50:07;;;;;;;0.22;0.22;;;;;;;4.67;nan;101327.22;10188790;29;20090;-86
2023/03/05 09:55:30;;;;;;;0.13;0.13;;;;;;;5.14;nan;101337.31;10199894;29;20126;-86
2023/03/05 10:00:40;;;;;;;0.88;0.40;;;;;;;5.16;nan;101323.53;10185303;29;20059;-85
2023/03/05 10:05:57;;;;;;;0.40;0.25;;;;;;;5.02;nan;101331.53;10167944;29;20238;-85
2023/03/05 10:11:05;;;;;;;0.10;0.10;;;;;;;5.12;nan;101315.59;10200886;29;20099;-84
2023/03/05 10:16:45;;;;;;;0.80;0.77;;;;;;;5.21;nan;101315.16;10183372;29;20533;-85
2023/03/05 10:22:02;;;;;;;1.30;0.75;;;;;;;5.00;nan;101319.28;10196704;29;20524;-85
2023/03/05 10:27:51;;;;;;;0.10;0.10;;;;;;;5.56;nan;101310.69;10184925;29;20048;-84
2023/03/05 10:33:00;;;;;;;0.10;0.10;;;;;;;5.75;nan;101302.03;10151158;29;20688;-84
2023/03/05 10:38:20;;;;;;;0.20;0.20;;;;;;;5.68;nan;101291.31;10181055;29;20547;-84
2023/03/05 10:43:40;;;;;;;0.20;0.20;;;;;;;5.53;nan;101287.19;10173967;29;20307;-85
2023/03/05 10:48:48;;;;;;;;;;;;;;;5.29;nan;101279.16;10199495;29;20063;-85
2023/03/05 10:54:00;;;;;;;0.28;0.28;;;;;;;4.95;nan;101274.97;10181957;29;19976;-84
2023/03/05 10:59:02;;;;;;;0.90;0.47;;;;;;;4.90;nan;101279.06;10199063;29;20059;-83
2023/03/05 11:04:07;;;;;;;0.00;0.00;;;;;;;5.58;nan;101259.69;10203518;29;20077;-84
2023/03/05 11:09:31;;;;;;;1.02;0.38;;;;;;;6.00;nan;101258.94;10199127;28;20079;-85
2023/03/05 11:14:37;;;;;;;0.95;0.30;;;;;;;5.87;nan;101248.81;10186870;29;20457;-82
2023/03/05 11:19:39;;;;;;;0.17;0.17;;;;;;;5.56;nan;101243.16;10182020;29;20052;-83
2023/03/05 11:24:45;;;;;;;0.47;0.28;;;;;;;5.24;nan;101252.06;10180916;29;20151;-83
2023/03/05 11:29:49;;;;;;;0.13;0.10;;;;;;;5.00;nan;101250.13;10167154;29;20082;-81
2023/03/05 11:34:53;;;;;;;0.32;0.32;;;;;;;5.18;nan;101254.38;10212523;28;20099;-81
2023/03/05 11:40:16;;;;;;;1.20;0.40;;;;;;;5.28;nan;101241.00;10193058;29;20052;-83
2023/03/05 11:45:18;;;;;;;0.65;0.38;;;;;;;5.69;nan;101229.00;10202109;29;20064;-83
2023/03/05 11:50:22;;;;;;;12.27;4.70;;;;;;;5.80;nan;101216.47;10183886;29;20176;-83
2023/03/05 11:55:26;;;;;;;6.30;2.42;;;;;;;6.07;nan;101192.53;10187324;29;20477;-82
2023/03/05 12:00:31;;;;;;;13.63;7.75;;;;;;;6.39;nan;101190.34;10172783;29;20532;-83
2023/03/05 12:05:37;;;;;;;1.60;1.02;;;;;;;6.52;nan;101179.63;10179323;29;20444;-81
2023/03/05 12:10:39;;;;;;;0.55;0.50;;;;;;;6.61;nan;101179.09;10194678;29;20036;-82
2023/03/05 12:16:02;;;;;;;4.15;1.42;;;;;;;7.14;nan;101163.75;10214492;29;20056;-81
2023/03/05 12:21:13;;;;;;;33.20;17.65;;;;;;;6.89;nan;101157.59;10192948;29;20055;-82
2023/03/05 12:26:16;;;;;;;2.55;1.83;;;;;;;6.89;nan;101157.59;10191597;29;20532;-82
2023/03/05 12:31:28;;;;;;;3.33;1.05;;;;;;;5.70;nan;101173.59;10201525;29;20731;-81
2023/03/05 12:36:34;;;;;;;0.50;0.45;;;;;;;4.91;nan;101166.66;10194654;28;20055;-84
2023/03/05 12:41:37;;;;;;;0.70;0.47;;;;;;;4.88;nan;101145.72;10186900;29;20064;-83
2023/03/05 12:46:41;;;;;;;0.43;0.43;;;;;;;5.56;nan;101143.56;10187276;29;20213;-83
2023/03/05 12:51:48;;;;;;;0.10;0.10;;;;;;;-147.53;100.00;57128.34;10196918;29;20051;-83
2023/03/05 12:56:51;;;;;;;0.80;0.52;;;;;;;5.56;nan;101143.56;10206225;29;20276;-83
2023/03/05 13:01:57;;;;;;;1.10;0.68;;;;;;;5.91;nan;101099.97;10206204;28;20079;-83
2023/03/05 13:07:06;;;;;;;0.80;0.65;;;;;;;6.37;nan;101099.25;10194399;29;20055;-82
2023/03/05 13:12:12;;;;;;;0.38;0.38;;;;;;;6.23;nan;101080.50;10200841;29;20055;-83
2023/03/05 13:17:39;;;;;;;0.20;0.20;;;;;;;5.71;nan;101107.81;10184019;29;20111;-85
2023/03/05 13:22:41;;;;;;;0.10;0.10;;;;;;;4.50;nan;101113.72;10197096;29;20598;-86
2023/03/05 13:27:43;;;;;;;0.20;0.20;;;;;;;4.18;nan;101097.53;10203260;29;20512;-85
2023/03/05 13:32:49;;;;;;;0.15;0.15;;;;;;;4.19;nan;101079.47;10184633;29;20080;-86
2023/03/05 13:37:51;;;;;;;0.65;0.52;;;;;;;4.47;nan;101069.50;10187437;29;20080;-86
2023/03/05 13:42:53;;;;;;;0.17;0.17;;;;;;;4.76;nan;101069.13;10183495;29;20055;-87
2023/03/05 13:48:00;;;;;;;0.43;0.28;;;;;;;4.42;nan;101067.56;10186949;28;20412;-86
2023/03/05 13:53:19;;;;;;;4.28;0.38;;;;;;;4.16;nan;101058.59;10183239;29;20047;-87
2023/03/05 13:58:39;;;;;;;0.30;0.30;;;;;;;4.23;nan;101054.56;10203182;29;20096;-87
2023/03/05 14:03:41;;;;;;;0.20;0.20;;;;;;;4.46;nan;101050.47;10182362;29;20085;-88
2023/03/05 14:08:47;;;;;;;0.10;0.10;;;;;;;4.84;nan;101034.84;10171744;29;20203;-88
2023/03/05 14:14:00;;;;;;;0.55;0.22;;;;;;;5.03;nan;101024.47;10180614;29;20088;-87
2023/03/05 14:19:06;;;;;;;1.27;0.38;;;;;;;-147.53;100.00;57128.34;10181527;29;20130;-88
2023/03/05 14:24:27;;;;;;;0.10;0.10;;;;;;;-147.53;100.00;57128.34;10199576;29;20051;-87
2023/03/05 14:29:31;;;;;;;0.30;0.30;;;;;;;4.81;nan;101013.97;10177209;29;20492;-88
2023/03/05 14:34:41;;;;;;;0.22;0.22;;;;;;;4.66;nan;101012.44;10172783;29;20059;-89
2023/03/05 14:39:50;;;;;;;0.52;0.38;;;;;;;4.40;nan;101006.97;10187737;29;20071;-87
2023/03/05 14:44:52;;;;;;;6.68;0.68;;;;;;;4.17;nan;100997.25;10197391;29;20211;-87
2023/03/05 14:49:54;;;;;;;0.10;0.10;;;;;;;4.07;nan;100995.94;10177827;29;20048;-87
2023/03/05 14:54:56;;;;;;;0.17;0.17;;;;;;;4.08;nan;100992.53;10175807;29;20431;-87
2023/03/05 14:59:58;;;;;;;2.00;0.73;;;;;;;4.11;nan;100973.66;10196259;29;20040;-86
2023/03/05 15:05:00;;;;;;;0.10;0.10;;;;;;;4.13;nan;100964.22;10197855;29;20154;-87
2023/03/05 15:10:04;;;;;;;1.08;0.60;;;;;;;4.21;nan;100952.53;10179671;29;20131;-87
2023/03/05 15:15:06;;;;;;;0.10;0.10;;;;;;;4.20;nan;100953.31;10194467;29;20043;-87
2023/03/05 15:20:13;;;;;;;1.15;0.80;;;;;;;4.28;nan;100933.84;10178678;29;20055;-86
2023/03/05 15:25:15;;;;;;;6.82;0.68;;;;;;;4.29;nan;100925.22;10194035;29;20138;-86
2023/03/05 15:30:29;;;;;;;0.63;0.45;;;;;;;4.28;nan;100926.06;10163322;29;20047;-86
2023/03/05 15:35:31;;;;;;;0.73;0.50;;;;;;;4.29;nan;100917.44;10198320;29;20055;-86
2023/03/05 15:40:32;;;;;;;0.25;0.25;;;;;;;4.28;nan;100918.28;10196787;29;20048;-87
2023/03/05 15:45:34;;;;;;;1.83;0.50;;;;;;;4.25;nan;100913.84;10198817;29;20078;-85
2023/03/05 15:50:42;;;;;;;0.60;0.60;;;;;;;4.33;nan;100901.22;10200059;29;20106;-85
2023/03/05 15:55:44;;;;;;;0.95;0.52;;;;;;;4.46;nan;100897.47;10219787;29;20150;-87
2023/03/05 16:00:47;;;;;;;1.05;0.50;;;;;;;4.42;nan;100890.38;10181133;29;20069;-88
2023/03/05 16:05:49;;;;;;;0.30;0.30;;;;;;;4.40;nan;100879.06;10184606;29;20098;-87
2023/03/05 16:10:51;;;;;;;1.75;0.88;;;;;;;4.35;nan;100889.19;10182149;29;20054;-87
2023/03/05 16:15:53;;;;;;;0.68;0.17;;;;;;;4.34;nan;100886.53;10177605;29;20059;-88
2023/03/05 16:20:55;;;;;;;2.97;1.23;;;;;;;4.28;nan;100881.09;10181762;29;20156;-88
2023/03/05 16:25:57;;;;;;;2.25;1.38;;;;;;;4.19;nan;100881.59;10184415;29;20059;-86
2023/03/05 16:31:00;;;;;;;0.47;0.35;;;;;;;4.11;nan;100881.22;10178348;29;20056;-87
2023/03/05 16:36:19;;;;;;;0.32;0.32;;;;;;;4.05;nan;100863.72;10178084;29;20062;-89
2023/03/05 16:41:26;;;;;;;0.10;0.10;;;;;;;3.99;nan;100866.00;10161982;29;20508;-87
2023/03/05 16:46:59;;;;;;;0.20;0.20;;;;;;;3.92;nan;100845.84;10164963;29;20048;-89
2023/03/05 16:52:43;;;;;;;0.10;0.10;;;;;;;3.89;nan;100854.34;10086224;29;20430;-92
2023/03/05 16:57:47;;;;;;;0.20;0.20;;;;;;;3.72;nan;100853.59;10099433;29;20120;-91
2023/03/05 17:02:48;;;;;;;0.20;0.20;;;;;;;3.65;nan;100861.03;10087823;29;20092;-89
2023/03/05 17:07:50;;;;;;;0.40;0.40;;;;;;;3.55;nan;100854.50;10101683;29;20135;-89
2023/03/05 17:12:53;;;;;;;0.98;0.85;;;;;;;3.52;nan;100854.38;10124634;29;20048;-87
2023/03/05 17:17:55;;;;;;;0.28;0.28;;;;;;;3.46;nan;100842.03;10191764;29;20075;-88
2023/03/05 17:22:57;;;;;;;1.92;0.50;;;;;;;3.42;nan;100841.81;10195617;29;20876;-89
2023/03/05 17:27:59;;;;;;;0.20;0.20;;;;;;;3.35;nan;100846.69;10186979;29;20040;-88
2023/03/05 17:33:01;;;;;;;0.45;0.25;;;;;;;3.37;nan;100836.41;10185463;29;20058;-88
2023/03/05 17:38:04;;;;;;;0.20;0.20;;;;;;;3.35;nan;100838.94;10181363;29;20204;-88
2023/03/05 17:43:05;;;;;;;0.20;0.20;;;;;;;3.27;nan;100836.78;10202197;29;20070;-88
2023/03/05 17:48:07;;;;;;;0.20;0.20;;;;;;;3.16;nan;100834.59;10182486;29;20054;-89
2023/03/05 17:53:09;;;;;;;1.50;0.77;;;;;;;3.11;nan;100830.03;10168424;29;20353;-88
2023/03/05 17:58:11;;;;;;;1.30;0.40;;;;;;;3.04;nan;100817.59;10187944;29;20244;-87
2023/03/05 18:03:13;;;;;;;0.68;0.35;;;;;;;2.96;nan;100810.34;10167163;29;20103;-88
2023/03/05 18:08:15;;;;;;;1.33;1.20;;;;;;;2.92;nan;100817.91;10185775;29;20039;-88
2023/03/05 18:13:17;;;;;;;0.43;0.43;;;;;;;2.87;nan;100804.75;10204097;29;20048;-87
2023/03/05 18:18:18;;;;;;;0.17;0.17;;;;;;;2.87;nan;100803.84;10193077;29;20039;-88
2023/03/05 18:23:20;;;;;;;6.60;3.22;;;;;;;2.79;nan;100803.47;10186433;29;20040;-87
2023/03/05 18:28:24;;;;;;;0.30;0.30;;;;;;;2.78;nan;100793.97;10199886;29;20421;-87
2023/03/05 18:33:26;;;;;;;0.55;0.20;;;;;;;2.71;nan;100781.53;10167119;29;20071;-87
2023/03/05 18:38:28;;;;;;;3.45;1.85;;;;;;;2.70;nan;100774.56;10179705;29;20047;-87
2023/03/05 18:43:33;;;;;;;6.05;3.08;;;;;;;2.70;nan;100769.41;10199215;29;20083;-87
2023/03/05 18:48:35;;;;;;;4.00;1.75;;;;;;;2.65;nan;100771.78;10183969;29;20073;-87
2023/03/05 18:53:36;;;;;;;1.17;1.05;;;;;;;2.64;nan;100764.81;10195859;29;20092;-87
2023/03/05 18:58:39;;;;;;;0.10;0.10;;;;;;;2.62;nan;100754.41;10191258;29;20472;-86
2023/03/05 19:03:41;;;;;;;0.68;0.68;;;;;;;2.63;nan;100761.34;10196284;29;20134;-86
2023/03/05 19:08:43;;;;;;;0.30;0.30;;;;;;;2.64;nan;100757.06;10183815;29;20147;-86
2023/03/05 19:13:49;;;;;;;2.25;0.75;;;;;;;2.62;nan;100749.22;10201146;29;20610;-86
2023/03/05 19:19:22;;;;;;;0.17;0.15;;;;;;;2.64;nan;100739.88;10197694;29;20043;-87
2023/03/05 19:24:27;;;;;;;1.05;0.60;;;;;;;2.63;nan;100732.91;10174469;29;20540;-87
2023/03/05 19:29:31;;;;;;;0.17;0.17;;;;;;;2.64;nan;100714.03;10152772;23;20588;-87
2023/03/05 19:34:34;;;;;;;0.35;0.35;;;;;;;2.62;nan;100710.44;10140900;29;20058;-87
2023/03/05 19:39:36;;;;;;;0.10;0.10;;;;;;;2.63;nan;100711.34;10115870;29;20048;-86
2023/03/05 19:44:37;;;;;;;1.05;0.32;;;;;;;2.67;nan;100718.44;10131977;29;20153;-86
2023/03/05 19:49:39;;;;;;;1.98;0.63;;;;;;;2.64;nan;100702.75;10125056;29;20044;-86
2023/03/05 19:54:41;;;;;;;1.40;0.77;;;;;;;2.63;nan;100706.19;10119653;29;20129;-86
2023/03/05 19:59:44;;;;;;;1.25;0.80;;;;;;;2.58;nan;100692.13;10123545;29;20050;-86
2023/03/05 20:04:48;;;;;;;2.70;0.88;;;;;;;2.57;nan;100686.09;10121653;29;20071;-86
2023/03/05 20:09:51;;;;;;;1.17;0.77;;;;;;;2.57;nan;100674.88;10127205;29;20537;-86
2023/03/05 20:14:53;;;;;;;0.57;0.57;;;;;;;2.55;nan;100667.06;10137862;29;20148;-88
2023/03/05 20:19:57;;;;;;;0.80;0.75;;;;;;;2.54;nan;100673.03;10127642;29;20053;-86
2023/03/05 20:24:59;;;;;;;8.15;1.02;;;;;;;2.54;nan;100673.03;10131290;29;20067;-85
2023/03/05 20:30:01;;;;;;;1.05;0.60;;;;;;;2.54;nan;100675.59;10116883;29;20132;-84
2023/03/05 20:35:03;;;;;;;0.10;0.10;;;;;;;2.52;nan;100661.69;10130853;29;20045;-85
2023/03/05 20:40:06;;;;;;;1.88;0.60;;;;;;;2.52;nan;100646.19;10125134;29;20105;-85
2023/03/05 20:45:08;;;;;;;0.20;0.20;;;;;;;2.48;nan;100645.19;10129703;29;20482;-84
2023/03/05 20:50:11;;;;;;;1.05;0.50;;;;;;;2.46;nan;100633.88;10130333;29;20044;-84
2023/03/05 20:55:13;;;;;;;13.07;1.00;;;;;;;2.45;nan;100636.41;10098502;29;20065;-86
2023/03/05 21:00:15;;;;;;;2.53;1.15;;;;;;;2.46;nan;100636.47;10121101;29;20444;-87
2023/03/05 21:05:18;;;;;;;1.40;0.90;;;;;;;2.49;nan;100640.88;10123279;29;20646;-86
2023/03/05 21:10:21;;;;;;;1.45;0.55;;;;;;;2.45;nan;100629.53;10108013;29;20077;-86
2023/03/05 21:15:25;;;;;;;0.55;0.55;;;;;;;2.44;nan;100612.25;10122864;29;20045;-85
2023/03/05 21:20:28;;;;;;;1.27;0.20;;;;;;;2.44;nan;100608.78;10125451;29;20119;-85
2023/03/05 21:25:31;;;;;;;0.10;0.10;;;;;;;2.42;nan;100608.72;10107999;29;20080;-85
2023/03/05 21:30:39;;;;;;;1.25;0.95;;;;;;;2.41;nan;100601.75;10107413;29;20507;-85
2023/03/05 21:35:41;;;;;;;0.10;0.10;;;;;;;2.39;nan;100602.53;10127713;29;20544;-86
2023/03/05 21:40:44;;;;;;;0.32;0.32;;;;;;;2.38;nan;100595.56;10123749;29;20045;-86
2023/03/05 21:45:46;;;;;;;0.82;0.80;;;;;;;2.36;nan;100581.69;10107380;29;20045;-86
2023/03/05 21:50:49;;;;;;;0.20;0.20;;;;;;;2.34;nan;100573.84;10107815;29;20045;-85
2023/03/05 21:56:22;;;;;;;0.17;0.17;;;;;;;2.36;nan;100571.34;10124450;29;20086;-86
2023/03/05 22:01:25;;;;;;;0.10;0.10;;;;;;;2.32;nan;100569.44;10107489;29;20056;-86
2023/03/05 22:06:26;;;;;;;0.10;0.10;;;;;;;2.34;nan;100562.63;10105831;29;20597;-86
2023/03/05 22:11:28;;;;;;;0.47;0.30;;;;;;;2.35;nan;100559.25;10122898;29;20081;-86
2023/03/05 22:16:30;;;;;;;0.10;0.10;;;;;;;2.36;nan;100555.84;10137137;29;20366;-86
2023/03/05 22:21:31;;;;;;;0.88;0.45;;;;;;;2.40;nan;100552.59;10122675;29;20059;-86
2023/03/05 22:26:36;;;;;;;0.10;0.10;;;;;;;2.40;nan;100539.66;10137068;29;20071;-86
2023/03/05 22:31:39;;;;;;;0.20;0.20;;;;;;;2.42;nan;100543.22;10122274;29;20437;-86
2023/03/05 22:36:41;;;;;;;0.10;0.10;;;;;;;2.41;nan;100533.69;10121418;29;20206;-86
2023/03/05 22:41:43;;;;;;;0.15;0.15;;;;;;;2.43;nan;100535.53;10121603;29;20048;-86
2023/03/05 22:46:44;;;;;;;0.10;0.10;;;;;;;2.43;nan;100526.88;10121156;29;20053;-86
2023/03/05 22:51:46;;;;;;;0.10;0.10;;;;;;;2.47;nan;100519.34;10122071;29;20045;-86
2023/03/05 22:56:48;;;;;;;0.98;0.98;;;;;;;2.50;nan;100523.75;10122201;29;20089;-86
2023/03/05 23:01:50;;;;;;;0.30;0.30;;;;;;;2.45;nan;100514.94;10135540;29;20056;-86
2023/03/05 23:06:51;;;;;;;0.10;0.10;;;;;;;2.43;nan;100526.88;10119949;29;20064;-86
2023/03/05 23:11:53;;;;;;;0.20;0.20;;;;;;;2.45;nan;100514.94;10121249;29;20513;-86
2023/03/05 23:16:55;;;;;;;0.28;0.28;;;;;;;2.44;nan;100513.16;10120023;29;20079;-86
2023/03/05 23:21:57;;;;;;;0.10;0.10;;;;;;;2.41;nan;100518.19;10133803;29;20129;-86
2023/03/05 23:26:59;;;;;;;0.50;0.50;;;;;;;2.40;nan;100514.72;10119384;29;20059;-88
2023/03/05 23:32:01;;;;;;;0.10;0.10;;;;;;;2.33;nan;100509.19;10121212;29;20053;-90
2023/03/05 23:37:44;;;;;;;0.10;0.10;;;;;;;2.31;nan;100501.34;10117514;29;20152;-91
2023/03/05 23:43:05;;;;;;;;;;;;;;;2.25;nan;100508.84;9971905;29;20069;-90
2023/03/05 23:48:13;;;;;;;0.20;0.20;;;;;;;2.13;nan;100511.72;9997281;29;19928;-89
2023/03/05 23:53:31;;;;;;;0.10;0.10;;;;;;;2.03;nan;100505.25;9990317;29;20054;-89
2023/03/05 23:59:06;;;;;;;0.13;0.13;;;;;;;1.99;nan;100502.47;9998645;29;20046;-87
